EGPKEGPC

Guest
Details From EGPK - Prestwick
To EGPC - Wick
Flight Number -
Tags generated
Created
Modified
Stats Distance 186 nm / 344 km
Max Altitude 17,500 ft / 5,334 m
Waypoints 3
Social Downloads 1
Likes 0
Share

Download

Looking for another format? Having issues loading an existing format? Contact us
Advertisement - Login to hide

Notes

Basic altitude profile: - Ascent Rate: 500ft/min - Ascent Speed: 80kts - Cruise Altitude: 500ft - Cruise Speed: 90kts - Descent Rate: 500ft/min - Descent Speed: 80kts Options: - Use NATs: yes - Use PACOTS: yes - Use low airways: yes - Use high airways: yes

Route

EGPK GUSSI EGPC

ID Type Via Altitude (ft/m) Position (lat/lon) Dist (leg/tot) Name
O EGPK APT - 0 / 0 55.50230 / -4.58836 - / 0 nm Prestwick
GUSSI FIX - 17,500 / 5,334 57.21306 / -4.12417 103 / 103 nm
O EGPC APT - 0 / 0 58.45787 / -3.09298 81 / 185 nm Wick

Altitude Profile

Advertisement - Login to hide

Weather


0- 5 10 15 20 25 30 35+ Temperature / °C

Clouds and Precipitation
Forecast for 2020-12-01 00:00 UTC. Updated an hour ago

Ground ~20,000 ft ~40,000 ft Winds

EGPK

Details ICAO EGPK (PIK)
Name Prestwick
Region United Kingdom
Timezone Europe/London (UTC+0.0)
Stats Elevation 65 ft / 20 m (AMSL)
Location 55.509400° -4.594440°
Runways 2
Magnetic Variation 2.227° W

METAR

EGPK 302220Z 00000KT 9999 FEW020 03/01 Q1026

Decode

TAF

TAF EGPK 301656Z 3018/0118 31009KT 9999 FEW020 TEMPO 0111/0118 BKN012 PROB30 TEMPO 0114/0118 7000 -RADZ BKN008

Decode

Departure Runways

ID Width Length Bearing (true/mag) Surface Threshold Overrun Markings Lighting
03 148 ft / 45 m 6,243 ft / 1,903 m 23.68° / 25.91° ASPHALT 259 ft / 79 m 276 ft / 84 m UK-APP EDGE THRESHOLD REIL-OMNI
12 151 ft / 46 m 9,775 ft / 2,979 m 121.39° / 123.62° ASPHALT 791 ft / 241 m 0 ft / 0 m UK-PREC-APP CENTERLINE EDGE THRESHOLD CALVERT-ILS REIL-OMNI
21 148 ft / 45 m 6,243 ft / 1,903 m 203.69° / 205.92° ASPHALT 0 ft / 0 m 0 ft / 0 m UK-PREC-APP EDGE THRESHOLD MALS REIL-OMNI
30 151 ft / 46 m 9,775 ft / 2,979 m 301.42° / 303.65° ASPHALT 0 ft / 0 m 0 ft / 0 m UK-PREC-APP CENTERLINE EDGE THRESHOLD CALVERT-ILS REIL-OMNI

EGPC

Details ICAO EGPC (WIC)
Name Wick
Region United Kingdom
Timezone Europe/London (UTC+0.0)
Stats Elevation 125 ft / 38 m (AMSL)
Location 58.458800° -3.092960°
Runways 1
Magnetic Variation 2.087° W

METAR

EGPC 302220Z AUTO 31004KT 9999 NCD 02/01 Q1023

Decode

TAF

Not found

Destination Runways

ID Width Length Bearing (true/mag) Surface Threshold Overrun Markings Lighting
13 148 ft / 45 m 5,992 ft / 1,826 m 127.02° / 129.10° ASPHALT 814 ft / 248 m 0 ft / 0 m UK-APP EDGE THRESHOLD MALS REIL-UNI
31 148 ft / 45 m 5,992 ft / 1,826 m 307.04° / 309.12° ASPHALT 1,010 ft / 308 m 0 ft / 0 m UK-APP EDGE THRESHOLD MALS REIL-UNI

Popular Alternatives